sensor_id;sensor_type;location;lat;lon;timestamp;P1;durP1;ratioP1;P2;durP2;ratioP2
46897;SDS011;32646;50.958;6.258;2023-09-12T00:00:05;7.38;;;3.60;;
46897;SDS011;32646;50.958;6.258;2023-09-12T00:02:32;8.23;;;4.28;;
46897;SDS011;32646;50.958;6.258;2023-09-12T00:04:59;10.23;;;4.03;;
46897;SDS011;32646;50.958;6.258;2023-09-12T00:07:26;8.93;;;3.88;;
46897;SDS011;32646;50.958;6.258;2023-09-12T00:09:52;8.77;;;3.83;;
46897;SDS011;32646;50.958;6.258;2023-09-12T00:12:21;8.57;;;4.50;;
46897;SDS011;32646;50.958;6.258;2023-09-12T00:14:49;8.90;;;4.30;;
46897;SDS011;32646;50.958;6.258;2023-09-12T00:17:16;8.30;;;4.38;;
46897;SDS011;32646;50.958;6.258;2023-09-12T00:19:43;9.70;;;4.57;;
46897;SDS011;32646;50.958;6.258;2023-09-12T00:22:09;7.60;;;4.13;;
46897;SDS011;32646;50.958;6.258;2023-09-12T00:24:36;9.35;;;3.97;;
46897;SDS011;32646;50.958;6.258;2023-09-12T00:27:03;10.25;;;4.60;;
46897;SDS011;32646;50.958;6.258;2023-09-12T00:29:30;9.93;;;4.75;;
46897;SDS011;32646;50.958;6.258;2023-09-12T00:31:56;12.95;;;4.35;;
46897;SDS011;32646;50.958;6.258;2023-09-12T00:34:23;9.45;;;4.72;;
46897;SDS011;32646;50.958;6.258;2023-09-12T00:36:50;10.43;;;4.70;;
46897;SDS011;32646;50.958;6.258;2023-09-12T00:39:16;8.95;;;4.90;;
46897;SDS011;32646;50.958;6.258;2023-09-12T00:41:43;11.68;;;4.68;;
46897;SDS011;32646;50.958;6.258;2023-09-12T00:44:09;9.50;;;4.53;;
46897;SDS011;32646;50.958;6.258;2023-09-12T00:46:36;9.57;;;4.32;;
46897;SDS011;32646;50.958;6.258;2023-09-12T00:49:04;11.30;;;4.63;;
46897;SDS011;32646;50.958;6.258;2023-09-12T00:51:32;9.55;;;4.47;;
46897;SDS011;32646;50.958;6.258;2023-09-12T00:54:00;10.77;;;5.00;;
46897;SDS011;32646;50.958;6.258;2023-09-12T00:56:27;13.63;;;4.95;;
46897;SDS011;32646;50.958;6.258;2023-09-12T00:58:55;12.60;;;5.45;;
46897;SDS011;32646;50.958;6.258;2023-09-12T01:01:23;10.45;;;4.05;;
46897;SDS011;32646;50.958;6.258;2023-09-12T01:03:50;11.30;;;5.05;;
46897;SDS011;32646;50.958;6.258;2023-09-12T01:06:18;10.32;;;4.53;;
46897;SDS011;32646;50.958;6.258;2023-09-12T01:08:47;9.55;;;4.80;;
46897;SDS011;32646;50.958;6.258;2023-09-12T01:11:14;9.93;;;4.70;;
46897;SDS011;32646;50.958;6.258;2023-09-12T01:13:42;10.73;;;4.78;;
46897;SDS011;32646;50.958;6.258;2023-09-12T01:16:09;10.25;;;5.30;;
46897;SDS011;32646;50.958;6.258;2023-09-12T01:18:36;10.88;;;4.85;;
46897;SDS011;32646;50.958;6.258;2023-09-12T01:24:28;11.10;;;5.00;;
46897;SDS011;32646;50.958;6.258;2023-09-12T01:30:05;9.52;;;4.47;;
46897;SDS011;32646;50.958;6.258;2023-09-12T01:32:33;12.35;;;5.90;;
46897;SDS011;32646;50.958;6.258;2023-09-12T01:35:01;9.50;;;4.97;;
46897;SDS011;32646;50.958;6.258;2023-09-12T01:37:28;12.85;;;5.72;;
46897;SDS011;32646;50.958;6.258;2023-09-12T01:39:55;11.27;;;5.88;;
46897;SDS011;32646;50.958;6.258;2023-09-12T01:42:22;14.60;;;5.50;;
46897;SDS011;32646;50.958;6.258;2023-09-12T01:44:50;15.77;;;7.00;;
46897;SDS011;32646;50.958;6.258;2023-09-12T01:47:21;13.50;;;6.35;;
46897;SDS011;32646;50.958;6.258;2023-09-12T01:49:50;13.90;;;6.45;;
46897;SDS011;32646;50.958;6.258;2023-09-12T01:52:20;16.42;;;6.53;;
46897;SDS011;32646;50.958;6.258;2023-09-12T01:54:47;16.50;;;6.45;;
46897;SDS011;32646;50.958;6.258;2023-09-12T01:57:16;17.13;;;8.55;;
46897;SDS011;32646;50.958;6.258;2023-09-12T01:59:44;16.90;;;7.60;;
46897;SDS011;32646;50.958;6.258;2023-09-12T02:02:10;15.88;;;7.68;;
46897;SDS011;32646;50.958;6.258;2023-09-12T02:04:40;17.17;;;8.15;;
46897;SDS011;32646;50.958;6.258;2023-09-12T02:07:07;15.18;;;6.65;;
46897;SDS011;32646;50.958;6.258;2023-09-12T02:09:33;19.15;;;8.40;;
46897;SDS011;32646;50.958;6.258;2023-09-12T02:12:00;20.02;;;7.63;;
46897;SDS011;32646;50.958;6.258;2023-09-12T02:14:26;17.98;;;7.63;;
46897;SDS011;32646;50.958;6.258;2023-09-12T02:16:53;17.90;;;7.88;;
46897;SDS011;32646;50.958;6.258;2023-09-12T02:19:20;17.55;;;7.63;;
46897;SDS011;32646;50.958;6.258;2023-09-12T02:21:46;20.65;;;8.55;;
46897;SDS011;32646;50.958;6.258;2023-09-12T02:24:13;21.77;;;9.82;;
46897;SDS011;32646;50.958;6.258;2023-09-12T02:26:39;17.48;;;8.68;;
46897;SDS011;32646;50.958;6.258;2023-09-12T02:29:06;16.95;;;7.95;;
46897;SDS011;32646;50.958;6.258;2023-09-12T02:31:32;19.70;;;8.48;;
46897;SDS011;32646;50.958;6.258;2023-09-12T02:33:59;21.08;;;8.75;;
46897;SDS011;32646;50.958;6.258;2023-09-12T02:36:26;15.85;;;7.85;;
46897;SDS011;32646;50.958;6.258;2023-09-12T02:38:54;18.33;;;7.75;;
46897;SDS011;32646;50.958;6.258;2023-09-12T02:41:20;19.15;;;8.15;;
46897;SDS011;32646;50.958;6.258;2023-09-12T02:43:47;21.23;;;8.93;;
46897;SDS011;32646;50.958;6.258;2023-09-12T02:46:13;19.63;;;8.27;;
46897;SDS011;32646;50.958;6.258;2023-09-12T02:48:40;17.92;;;7.88;;
46897;SDS011;32646;50.958;6.258;2023-09-12T02:51:07;17.42;;;6.97;;
46897;SDS011;32646;50.958;6.258;2023-09-12T02:53:34;18.48;;;8.43;;
46897;SDS011;32646;50.958;6.258;2023-09-12T02:56:00;18.60;;;7.80;;
46897;SDS011;32646;50.958;6.258;2023-09-12T02:58:27;18.30;;;8.20;;
46897;SDS011;32646;50.958;6.258;2023-09-12T03:00:54;17.85;;;8.18;;
46897;SDS011;32646;50.958;6.258;2023-09-12T03:03:21;18.95;;;9.60;;
46897;SDS011;32646;50.958;6.258;2023-09-12T03:05:48;21.58;;;9.27;;
46897;SDS011;32646;50.958;6.258;2023-09-12T03:08:26;19.80;;;8.15;;
46897;SDS011;32646;50.958;6.258;2023-09-12T03:10:56;22.02;;;10.05;;
46897;SDS011;32646;50.958;6.258;2023-09-12T03:13:26;23.48;;;9.35;;
46897;SDS011;32646;50.958;6.258;2023-09-12T03:15:53;24.55;;;9.68;;
46897;SDS011;32646;50.958;6.258;2023-09-12T03:18:20;23.20;;;10.25;;
46897;SDS011;32646;50.958;6.258;2023-09-12T03:20:47;22.85;;;9.90;;
46897;SDS011;32646;50.958;6.258;2023-09-12T03:23:13;23.42;;;9.88;;
46897;SDS011;32646;50.958;6.258;2023-09-12T03:25:40;21.60;;;8.95;;
46897;SDS011;32646;50.958;6.258;2023-09-12T03:28:07;20.77;;;8.60;;
46897;SDS011;32646;50.958;6.258;2023-09-12T03:30:35;25.55;;;10.68;;
46897;SDS011;32646;50.958;6.258;2023-09-12T03:33:03;22.83;;;9.43;;
46897;SDS011;32646;50.958;6.258;2023-09-12T03:35:31;21.92;;;9.57;;
46897;SDS011;32646;50.958;6.258;2023-09-12T03:37:59;24.08;;;9.55;;
46897;SDS011;32646;50.958;6.258;2023-09-12T03:40:27;21.63;;;9.02;;
46897;SDS011;32646;50.958;6.258;2023-09-12T03:42:55;22.95;;;10.73;;
46897;SDS011;32646;50.958;6.258;2023-09-12T03:45:22;25.15;;;9.88;;
46897;SDS011;32646;50.958;6.258;2023-09-12T03:47:49;24.92;;;10.57;;
46897;SDS011;32646;50.958;6.258;2023-09-12T03:50:15;22.75;;;9.63;;
46897;SDS011;32646;50.958;6.258;2023-09-12T03:52:42;26.30;;;9.55;;
46897;SDS011;32646;50.958;6.258;2023-09-12T03:55:09;19.20;;;8.63;;
46897;SDS011;32646;50.958;6.258;2023-09-12T03:57:35;20.00;;;9.15;;
46897;SDS011;32646;50.958;6.258;2023-09-12T04:00:02;20.73;;;9.20;;
46897;SDS011;32646;50.958;6.258;2023-09-12T04:02:29;21.35;;;8.77;;
46897;SDS011;32646;50.958;6.258;2023-09-12T04:04:56;19.75;;;9.07;;
46897;SDS011;32646;50.958;6.258;2023-09-12T04:07:22;19.85;;;9.70;;
46897;SDS011;32646;50.958;6.258;2023-09-12T04:09:49;18.98;;;8.13;;
46897;SDS011;32646;50.958;6.258;2023-09-12T04:12:15;22.98;;;9.30;;
46897;SDS011;32646;50.958;6.258;2023-09-12T04:14:42;19.20;;;8.55;;
46897;SDS011;32646;50.958;6.258;2023-09-12T04:17:09;17.35;;;8.45;;
46897;SDS011;32646;50.958;6.258;2023-09-12T04:19:35;21.02;;;8.38;;
46897;SDS011;32646;50.958;6.258;2023-09-12T04:22:02;20.27;;;8.45;;
46897;SDS011;32646;50.958;6.258;2023-09-12T04:24:29;19.05;;;8.52;;
46897;SDS011;32646;50.958;6.258;2023-09-12T04:26:55;18.38;;;8.50;;
46897;SDS011;32646;50.958;6.258;2023-09-12T04:29:22;21.33;;;9.32;;
46897;SDS011;32646;50.958;6.258;2023-09-12T04:31:48;18.95;;;9.25;;
46897;SDS011;32646;50.958;6.258;2023-09-12T04:34:15;22.00;;;8.80;;
46897;SDS011;32646;50.958;6.258;2023-09-12T04:36:42;20.58;;;9.32;;
46897;SDS011;32646;50.958;6.258;2023-09-12T04:39:08;21.67;;;9.07;;
46897;SDS011;32646;50.958;6.258;2023-09-12T04:41:35;21.27;;;9.85;;
46897;SDS011;32646;50.958;6.258;2023-09-12T04:44:01;23.90;;;10.77;;
46897;SDS011;32646;50.958;6.258;2023-09-12T04:46:28;26.58;;;10.45;;
46897;SDS011;32646;50.958;6.258;2023-09-12T04:48:55;23.95;;;10.20;;
46897;SDS011;32646;50.958;6.258;2023-09-12T04:51:21;25.02;;;10.75;;
46897;SDS011;32646;50.958;6.258;2023-09-12T04:53:48;28.50;;;11.23;;
46897;SDS011;32646;50.958;6.258;2023-09-12T04:56:14;24.13;;;10.45;;
46897;SDS011;32646;50.958;6.258;2023-09-12T04:58:41;25.65;;;11.88;;
46897;SDS011;32646;50.958;6.258;2023-09-12T05:01:08;28.20;;;11.82;;
46897;SDS011;32646;50.958;6.258;2023-09-12T05:03:35;29.40;;;12.48;;
46897;SDS011;32646;50.958;6.258;2023-09-12T05:06:01;29.10;;;11.52;;
46897;SDS011;32646;50.958;6.258;2023-09-12T05:08:29;32.67;;;11.88;;
46897;SDS011;32646;50.958;6.258;2023-09-12T05:10:55;30.38;;;12.48;;
46897;SDS011;32646;50.958;6.258;2023-09-12T05:13:22;32.72;;;12.70;;
46897;SDS011;32646;50.958;6.258;2023-09-12T05:15:49;36.95;;;13.57;;
46897;SDS011;32646;50.958;6.258;2023-09-12T05:18:15;38.55;;;15.43;;
46897;SDS011;32646;50.958;6.258;2023-09-12T05:20:42;42.72;;;15.57;;
46897;SDS011;32646;50.958;6.258;2023-09-12T05:23:09;40.00;;;15.23;;
46897;SDS011;32646;50.958;6.258;2023-09-12T05:25:35;54.72;;;19.02;;
46897;SDS011;32646;50.958;6.258;2023-09-12T05:28:02;45.83;;;18.30;;
46897;SDS011;32646;50.958;6.258;2023-09-12T05:30:28;53.17;;;21.90;;
46897;SDS011;32646;50.958;6.258;2023-09-12T05:32:55;114.30;;;64.60;;
46897;SDS011;32646;50.958;6.258;2023-09-12T05:35:22;62.45;;;29.90;;
46897;SDS011;32646;50.958;6.258;2023-09-12T05:37:49;70.35;;;34.33;;
46897;SDS011;32646;50.958;6.258;2023-09-12T05:40:16;54.08;;;27.13;;
46897;SDS011;32646;50.958;6.258;2023-09-12T05:42:44;63.10;;;28.90;;
46897;SDS011;32646;50.958;6.258;2023-09-12T05:45:10;50.35;;;23.92;;
46897;SDS011;32646;50.958;6.258;2023-09-12T05:47:37;50.85;;;22.48;;
46897;SDS011;32646;50.958;6.258;2023-09-12T05:50:04;46.88;;;22.63;;
46897;SDS011;32646;50.958;6.258;2023-09-12T05:52:32;48.60;;;21.15;;
46897;SDS011;32646;50.958;6.258;2023-09-12T05:54:59;46.15;;;21.27;;
46897;SDS011;32646;50.958;6.258;2023-09-12T05:57:25;53.17;;;22.98;;
46897;SDS011;32646;50.958;6.258;2023-09-12T05:59:52;44.95;;;20.63;;
46897;SDS011;32646;50.958;6.258;2023-09-12T06:02:18;42.75;;;21.75;;
46897;SDS011;32646;50.958;6.258;2023-09-12T06:04:45;51.20;;;22.60;;
46897;SDS011;32646;50.958;6.258;2023-09-12T06:07:12;47.75;;;22.17;;
46897;SDS011;32646;50.958;6.258;2023-09-12T06:09:38;46.35;;;22.27;;
46897;SDS011;32646;50.958;6.258;2023-09-12T06:12:05;48.03;;;21.88;;
46897;SDS011;32646;50.958;6.258;2023-09-12T06:14:32;42.92;;;21.85;;
46897;SDS011;32646;50.958;6.258;2023-09-12T06:16:59;46.58;;;21.15;;
46897;SDS011;32646;50.958;6.258;2023-09-12T06:19:25;42.80;;;20.27;;
46897;SDS011;32646;50.958;6.258;2023-09-12T06:21:52;46.97;;;22.35;;
46897;SDS011;32646;50.958;6.258;2023-09-12T06:24:19;44.20;;;20.63;;
46897;SDS011;32646;50.958;6.258;2023-09-12T06:26:46;46.63;;;19.75;;
46897;SDS011;32646;50.958;6.258;2023-09-12T06:29:13;42.50;;;21.25;;
46897;SDS011;32646;50.958;6.258;2023-09-12T06:31:40;44.38;;;21.92;;
46897;SDS011;32646;50.958;6.258;2023-09-12T06:34:07;44.20;;;21.35;;
46897;SDS011;32646;50.958;6.258;2023-09-12T06:36:34;42.20;;;20.17;;
46897;SDS011;32646;50.958;6.258;2023-09-12T06:39:01;45.72;;;22.75;;
46897;SDS011;32646;50.958;6.258;2023-09-12T06:41:28;38.53;;;21.70;;
46897;SDS011;32646;50.958;6.258;2023-09-12T06:43:55;45.10;;;22.25;;
46897;SDS011;32646;50.958;6.258;2023-09-12T06:46:21;44.85;;;22.00;;
46897;SDS011;32646;50.958;6.258;2023-09-12T06:48:48;42.00;;;21.63;;
46897;SDS011;32646;50.958;6.258;2023-09-12T06:51:14;39.50;;;20.27;;
46897;SDS011;32646;50.958;6.258;2023-09-12T06:53:43;36.92;;;19.80;;
46897;SDS011;32646;50.958;6.258;2023-09-12T06:56:10;36.80;;;19.40;;
46897;SDS011;32646;50.958;6.258;2023-09-12T06:58:37;39.00;;;19.98;;
46897;SDS011;32646;50.958;6.258;2023-09-12T07:01:04;37.85;;;19.35;;
46897;SDS011;32646;50.958;6.258;2023-09-12T07:03:32;36.35;;;18.90;;
46897;SDS011;32646;50.958;6.258;2023-09-12T07:05:59;36.45;;;18.48;;
46897;SDS011;32646;50.958;6.258;2023-09-12T07:08:26;39.03;;;19.70;;
46897;SDS011;32646;50.958;6.258;2023-09-12T07:10:55;33.50;;;18.42;;
46897;SDS011;32646;50.958;6.258;2023-09-12T07:13:22;37.45;;;18.48;;
46897;SDS011;32646;50.958;6.258;2023-09-12T07:15:51;34.00;;;19.00;;
46897;SDS011;32646;50.958;6.258;2023-09-12T07:18:18;33.45;;;18.63;;
46897;SDS011;32646;50.958;6.258;2023-09-12T07:20:45;35.72;;;19.63;;
46897;SDS011;32646;50.958;6.258;2023-09-12T07:23:11;37.25;;;19.85;;
46897;SDS011;32646;50.958;6.258;2023-09-12T07:25:38;35.80;;;19.25;;
46897;SDS011;32646;50.958;6.258;2023-09-12T07:28:06;35.35;;;18.13;;
46897;SDS011;32646;50.958;6.258;2023-09-12T07:30:33;36.53;;;18.80;;
46897;SDS011;32646;50.958;6.258;2023-09-12T07:33:02;37.60;;;16.52;;
46897;SDS011;32646;50.958;6.258;2023-09-12T07:35:29;30.63;;;14.95;;
46897;SDS011;32646;50.958;6.258;2023-09-12T07:37:57;33.88;;;15.77;;
46897;SDS011;32646;50.958;6.258;2023-09-12T07:40:23;33.40;;;14.85;;
46897;SDS011;32646;50.958;6.258;2023-09-12T07:42:50;29.23;;;14.70;;
46897;SDS011;32646;50.958;6.258;2023-09-12T07:45:17;30.77;;;14.40;;
46897;SDS011;32646;50.958;6.258;2023-09-12T07:47:43;30.55;;;14.38;;
46897;SDS011;32646;50.958;6.258;2023-09-12T07:50:10;24.15;;;12.80;;
46897;SDS011;32646;50.958;6.258;2023-09-12T07:52:36;28.10;;;13.15;;
46897;SDS011;32646;50.958;6.258;2023-09-12T07:55:03;27.08;;;12.43;;
46897;SDS011;32646;50.958;6.258;2023-09-12T07:57:30;22.35;;;11.73;;
46897;SDS011;32646;50.958;6.258;2023-09-12T07:59:57;21.52;;;11.88;;
46897;SDS011;32646;50.958;6.258;2023-09-12T08:02:23;21.60;;;11.77;;
46897;SDS011;32646;50.958;6.258;2023-09-12T08:04:50;22.83;;;12.20;;
46897;SDS011;32646;50.958;6.258;2023-09-12T08:07:17;22.00;;;12.00;;
46897;SDS011;32646;50.958;6.258;2023-09-12T08:09:48;21.90;;;11.93;;
46897;SDS011;32646;50.958;6.258;2023-09-12T08:12:22;20.55;;;11.13;;
46897;SDS011;32646;50.958;6.258;2023-09-12T08:14:49;17.70;;;10.05;;
46897;SDS011;32646;50.958;6.258;2023-09-12T08:17:16;20.05;;;11.52;;
46897;SDS011;32646;50.958;6.258;2023-09-12T08:19:43;19.05;;;10.27;;
46897;SDS011;32646;50.958;6.258;2023-09-12T08:22:10;20.73;;;11.45;;
46897;SDS011;32646;50.958;6.258;2023-09-12T08:24:37;19.27;;;10.75;;
46897;SDS011;32646;50.958;6.258;2023-09-12T08:27:04;18.67;;;10.63;;
46897;SDS011;32646;50.958;6.258;2023-09-12T08:29:31;17.15;;;10.30;;
46897;SDS011;32646;50.958;6.258;2023-09-12T08:31:59;16.17;;;9.18;;
46897;SDS011;32646;50.958;6.258;2023-09-12T08:34:26;16.88;;;8.95;;
46897;SDS011;32646;50.958;6.258;2023-09-12T08:36:53;14.70;;;8.73;;
46897;SDS011;32646;50.958;6.258;2023-09-12T08:39:23;16.30;;;9.70;;
46897;SDS011;32646;50.958;6.258;2023-09-12T08:41:52;13.80;;;8.73;;
46897;SDS011;32646;50.958;6.258;2023-09-12T08:44:19;12.80;;;7.57;;
46897;SDS011;32646;50.958;6.258;2023-09-12T08:46:47;10.43;;;7.20;;
46897;SDS011;32646;50.958;6.258;2023-09-12T08:49:14;11.63;;;7.93;;
46897;SDS011;32646;50.958;6.258;2023-09-12T08:51:41;14.25;;;8.95;;
46897;SDS011;32646;50.958;6.258;2023-09-12T08:54:08;15.55;;;9.70;;
46897;SDS011;32646;50.958;6.258;2023-09-12T08:56:35;14.10;;;8.77;;
46897;SDS011;32646;50.958;6.258;2023-09-12T08:59:05;14.80;;;8.98;;
46897;SDS011;32646;50.958;6.258;2023-09-12T09:01:33;16.38;;;9.40;;
46897;SDS011;32646;50.958;6.258;2023-09-12T09:04:01;14.43;;;8.55;;
46897;SDS011;32646;50.958;6.258;2023-09-12T09:06:29;14.10;;;8.15;;
46897;SDS011;32646;50.958;6.258;2023-09-12T09:08:57;11.65;;;7.40;;
46897;SDS011;32646;50.958;6.258;2023-09-12T09:11:25;13.85;;;7.93;;
46897;SDS011;32646;50.958;6.258;2023-09-12T09:13:52;11.25;;;7.60;;
46897;SDS011;32646;50.958;6.258;2023-09-12T09:16:19;11.07;;;6.28;;
46897;SDS011;32646;50.958;6.258;2023-09-12T09:18:59;11.50;;;5.93;;
46897;SDS011;32646;50.958;6.258;2023-09-12T09:21:28;8.25;;;5.70;;
46897;SDS011;32646;50.958;6.258;2023-09-12T09:23:57;10.00;;;6.00;;
46897;SDS011;32646;50.958;6.258;2023-09-12T09:26:47;9.02;;;6.50;;
46897;SDS011;32646;50.958;6.258;2023-09-12T09:31:42;9.93;;;6.32;;
46897;SDS011;32646;50.958;6.258;2023-09-12T09:34:10;10.63;;;5.93;;
46897;SDS011;32646;50.958;6.258;2023-09-12T09:36:52;9.15;;;5.20;;
46897;SDS011;32646;50.958;6.258;2023-09-12T09:39:25;9.65;;;6.05;;
46897;SDS011;32646;50.958;6.258;2023-09-12T09:41:53;11.25;;;6.18;;
46897;SDS011;32646;50.958;6.258;2023-09-12T09:44:25;10.18;;;6.28;;
46897;SDS011;32646;50.958;6.258;2023-09-12T09:49:25;7.40;;;5.13;;
46897;SDS011;32646;50.958;6.258;2023-09-12T09:51:52;8.45;;;5.75;;
46897;SDS011;32646;50.958;6.258;2023-09-12T09:54:21;7.35;;;5.35;;
46897;SDS011;32646;50.958;6.258;2023-09-12T09:56:54;8.57;;;5.40;;
46897;SDS011;32646;50.958;6.258;2023-09-12T09:59:26;9.07;;;5.43;;
46897;SDS011;32646;50.958;6.258;2023-09-12T10:01:55;9.30;;;5.90;;
46897;SDS011;32646;50.958;6.258;2023-09-12T10:04:23;8.82;;;5.28;;
46897;SDS011;32646;50.958;6.258;2023-09-12T10:06:52;8.57;;;4.38;;
46897;SDS011;32646;50.958;6.258;2023-09-12T10:09:22;7.90;;;4.35;;
46897;SDS011;32646;50.958;6.258;2023-09-12T10:11:52;6.95;;;4.32;;
46897;SDS011;32646;50.958;6.258;2023-09-12T10:14:22;8.80;;;4.88;;
46897;SDS011;32646;50.958;6.258;2023-09-12T10:16:50;6.45;;;4.40;;
46897;SDS011;32646;50.958;6.258;2023-09-12T10:19:24;7.47;;;4.60;;
46897;SDS011;32646;50.958;6.258;2023-09-12T10:24:32;7.22;;;4.85;;
46897;SDS011;32646;50.958;6.258;2023-09-12T10:27:01;6.72;;;4.15;;
46897;SDS011;32646;50.958;6.258;2023-09-12T10:29:30;7.30;;;4.10;;
46897;SDS011;32646;50.958;6.258;2023-09-12T10:31:57;7.68;;;4.30;;
46897;SDS011;32646;50.958;6.258;2023-09-12T10:34:27;7.90;;;4.38;;
46897;SDS011;32646;50.958;6.258;2023-09-12T10:36:55;7.07;;;3.78;;
46897;SDS011;32646;50.958;6.258;2023-09-12T10:41:52;7.22;;;4.28;;
46897;SDS011;32646;50.958;6.258;2023-09-12T10:44:21;8.23;;;4.25;;
46897;SDS011;32646;50.958;6.258;2023-09-12T10:46:47;6.88;;;3.70;;
46897;SDS011;32646;50.958;6.258;2023-09-12T10:49:14;6.93;;;3.55;;
46897;SDS011;32646;50.958;6.258;2023-09-12T10:51:43;6.88;;;3.58;;
46897;SDS011;32646;50.958;6.258;2023-09-12T10:57:10;6.97;;;3.90;;
46897;SDS011;32646;50.958;6.258;2023-09-12T10:59:37;6.63;;;3.83;;
46897;SDS011;32646;50.958;6.258;2023-09-12T11:02:28;6.25;;;3.72;;
46897;SDS011;32646;50.958;6.258;2023-09-12T11:04:55;7.95;;;4.43;;
46897;SDS011;32646;50.958;6.258;2023-09-12T11:12:39;7.05;;;3.53;;
46897;SDS011;32646;50.958;6.258;2023-09-12T11:15:06;7.22;;;3.80;;
46897;SDS011;32646;50.958;6.258;2023-09-12T11:17:42;6.03;;;3.05;;
46897;SDS011;32646;50.958;6.258;2023-09-12T11:20:14;7.20;;;3.30;;
46897;SDS011;32646;50.958;6.258;2023-09-12T11:22:42;4.90;;;2.95;;
46897;SDS011;32646;50.958;6.258;2023-09-12T11:25:17;6.18;;;3.20;;
46897;SDS011;32646;50.958;6.258;2023-09-12T11:27:46;7.05;;;3.00;;
46897;SDS011;32646;50.958;6.258;2023-09-12T11:30:29;6.97;;;3.00;;
46897;SDS011;32646;50.958;6.258;2023-09-12T11:32:55;5.63;;;2.72;;
46897;SDS011;32646;50.958;6.258;2023-09-12T11:35:24;5.95;;;2.50;;
46897;SDS011;32646;50.958;6.258;2023-09-12T11:37:53;6.40;;;2.90;;
46897;SDS011;32646;50.958;6.258;2023-09-12T11:43:00;5.55;;;2.78;;
46897;SDS011;32646;50.958;6.258;2023-09-12T11:45:27;5.18;;;3.00;;
46897;SDS011;32646;50.958;6.258;2023-09-12T11:47:54;6.00;;;2.90;;
46897;SDS011;32646;50.958;6.258;2023-09-12T11:50:34;5.38;;;3.20;;
46897;SDS011;32646;50.958;6.258;2023-09-12T11:53:04;6.43;;;3.45;;
46897;SDS011;32646;50.958;6.258;2023-09-12T11:55:37;4.88;;;2.78;;
46897;SDS011;32646;50.958;6.258;2023-09-12T11:58:07;5.25;;;2.95;;
46897;SDS011;32646;50.958;6.258;2023-09-12T12:00:34;6.85;;;2.60;;
46897;SDS011;32646;50.958;6.258;2023-09-12T12:03:01;6.72;;;2.70;;
46897;SDS011;32646;50.958;6.258;2023-09-12T12:05:28;5.68;;;2.53;;
46897;SDS011;32646;50.958;6.258;2023-09-12T12:07:55;6.57;;;3.22;;
46897;SDS011;32646;50.958;6.258;2023-09-12T12:10:41;4.50;;;2.65;;
46897;SDS011;32646;50.958;6.258;2023-09-12T12:13:12;5.10;;;2.90;;
46897;SDS011;32646;50.958;6.258;2023-09-12T12:15:42;5.07;;;2.45;;
46897;SDS011;32646;50.958;6.258;2023-09-12T12:18:09;5.57;;;2.88;;
46897;SDS011;32646;50.958;6.258;2023-09-12T12:20:36;4.53;;;2.50;;
46897;SDS011;32646;50.958;6.258;2023-09-12T12:23:02;5.68;;;3.00;;
46897;SDS011;32646;50.958;6.258;2023-09-12T12:25:33;6.38;;;2.90;;
46897;SDS011;32646;50.958;6.258;2023-09-12T12:28:00;5.45;;;2.80;;
46897;SDS011;32646;50.958;6.258;2023-09-12T12:30:30;5.30;;;2.75;;
46897;SDS011;32646;50.958;6.258;2023-09-12T12:32:59;5.45;;;2.90;;
46897;SDS011;32646;50.958;6.258;2023-09-12T12:35:47;5.75;;;2.90;;
46897;SDS011;32646;50.958;6.258;2023-09-12T12:38:22;5.63;;;2.72;;
46897;SDS011;32646;50.958;6.258;2023-09-12T12:40:48;4.82;;;2.10;;
46897;SDS011;32646;50.958;6.258;2023-09-12T12:43:16;5.70;;;2.50;;
46897;SDS011;32646;50.958;6.258;2023-09-12T12:45:51;4.82;;;2.80;;
46897;SDS011;32646;50.958;6.258;2023-09-12T12:48:28;5.18;;;2.40;;
46897;SDS011;32646;50.958;6.258;2023-09-12T12:50:59;4.28;;;2.25;;
46897;SDS011;32646;50.958;6.258;2023-09-12T12:53:38;5.05;;;2.40;;
46897;SDS011;32646;50.958;6.258;2023-09-12T12:56:22;4.47;;;2.25;;
46897;SDS011;32646;50.958;6.258;2023-09-12T12:58:55;4.97;;;2.38;;
46897;SDS011;32646;50.958;6.258;2023-09-12T13:01:23;4.28;;;2.40;;
46897;SDS011;32646;50.958;6.258;2023-09-12T13:03:51;4.95;;;2.33;;
46897;SDS011;32646;50.958;6.258;2023-09-12T13:06:17;4.78;;;2.15;;
46897;SDS011;32646;50.958;6.258;2023-09-12T13:08:45;4.25;;;2.42;;
46897;SDS011;32646;50.958;6.258;2023-09-12T13:11:13;5.07;;;2.53;;
46897;SDS011;32646;50.958;6.258;2023-09-12T13:13:43;5.75;;;2.80;;
46897;SDS011;32646;50.958;6.258;2023-09-12T13:16:13;4.20;;;2.53;;
46897;SDS011;32646;50.958;6.258;2023-09-12T13:18:40;4.75;;;2.63;;
46897;SDS011;32646;50.958;6.258;2023-09-12T13:21:08;4.82;;;2.80;;
46897;SDS011;32646;50.958;6.258;2023-09-12T13:23:35;4.93;;;3.05;;
46897;SDS011;32646;50.958;6.258;2023-09-12T13:28:30;4.95;;;3.03;;
46897;SDS011;32646;50.958;6.258;2023-09-12T13:30:56;7.82;;;2.70;;
46897;SDS011;32646;50.958;6.258;2023-09-12T13:33:23;5.43;;;3.17;;
46897;SDS011;32646;50.958;6.258;2023-09-12T13:35:50;5.13;;;2.97;;
46897;SDS011;32646;50.958;6.258;2023-09-12T13:38:17;4.80;;;2.85;;
46897;SDS011;32646;50.958;6.258;2023-09-12T13:40:45;4.55;;;2.55;;
46897;SDS011;32646;50.958;6.258;2023-09-12T13:43:12;5.75;;;3.05;;
46897;SDS011;32646;50.958;6.258;2023-09-12T13:45:39;5.35;;;3.05;;
46897;SDS011;32646;50.958;6.258;2023-09-12T13:48:06;4.78;;;2.92;;
46897;SDS011;32646;50.958;6.258;2023-09-12T13:50:33;5.18;;;3.10;;
46897;SDS011;32646;50.958;6.258;2023-09-12T13:53:00;8.15;;;3.20;;
46897;SDS011;32646;50.958;6.258;2023-09-12T13:55:28;6.28;;;3.28;;
46897;SDS011;32646;50.958;6.258;2023-09-12T13:57:54;4.85;;;2.72;;
46897;SDS011;32646;50.958;6.258;2023-09-12T14:00:21;5.53;;;3.00;;
46897;SDS011;32646;50.958;6.258;2023-09-12T14:03:00;6.07;;;3.08;;
46897;SDS011;32646;50.958;6.258;2023-09-12T14:05:27;4.80;;;2.65;;
46897;SDS011;32646;50.958;6.258;2023-09-12T14:07:55;6.32;;;3.53;;
46897;SDS011;32646;50.958;6.258;2023-09-12T14:10:22;5.55;;;2.80;;
46897;SDS011;32646;50.958;6.258;2023-09-12T14:13:02;7.05;;;3.08;;
46897;SDS011;32646;50.958;6.258;2023-09-12T14:15:46;4.90;;;3.00;;
46897;SDS011;32646;50.958;6.258;2023-09-12T14:18:13;4.95;;;3.00;;
46897;SDS011;32646;50.958;6.258;2023-09-12T14:20:41;7.10;;;3.22;;
46897;SDS011;32646;50.958;6.258;2023-09-12T14:23:08;5.70;;;3.10;;
46897;SDS011;32646;50.958;6.258;2023-09-12T14:25:48;5.32;;;2.85;;
46897;SDS011;32646;50.958;6.258;2023-09-12T14:28:16;6.63;;;3.17;;
46897;SDS011;32646;50.958;6.258;2023-09-12T14:30:44;5.47;;;3.15;;
46897;SDS011;32646;50.958;6.258;2023-09-12T14:33:11;5.85;;;3.13;;
46897;SDS011;32646;50.958;6.258;2023-09-12T14:35:42;6.40;;;3.38;;
46897;SDS011;32646;50.958;6.258;2023-09-12T14:38:09;5.45;;;3.53;;
46897;SDS011;32646;50.958;6.258;2023-09-12T14:40:37;6.32;;;3.60;;
46897;SDS011;32646;50.958;6.258;2023-09-12T14:43:03;7.45;;;3.22;;
46897;SDS011;32646;50.958;6.258;2023-09-12T14:45:30;6.95;;;3.42;;
46897;SDS011;32646;50.958;6.258;2023-09-12T14:47:57;6.13;;;3.13;;
46897;SDS011;32646;50.958;6.258;2023-09-12T14:50:24;5.90;;;3.55;;
46897;SDS011;32646;50.958;6.258;2023-09-12T14:53:06;7.53;;;3.38;;
46897;SDS011;32646;50.958;6.258;2023-09-12T14:55:33;8.23;;;3.70;;
46897;SDS011;32646;50.958;6.258;2023-09-12T14:58:00;7.80;;;3.80;;
46897;SDS011;32646;50.958;6.258;2023-09-12T15:00:26;6.28;;;3.40;;
46897;SDS011;32646;50.958;6.258;2023-09-12T15:02:53;7.30;;;3.10;;
46897;SDS011;32646;50.958;6.258;2023-09-12T15:05:20;6.30;;;3.13;;
46897;SDS011;32646;50.958;6.258;2023-09-12T15:07:46;6.45;;;3.40;;
46897;SDS011;32646;50.958;6.258;2023-09-12T15:10:13;7.75;;;3.58;;